sensor_id;sensor_type;location;lat;lon;timestamp;pressure;altitude;pressure_sealevel;temperature;humidity
83373;BME280;73281;50.882;5.984;2023-12-29T00:00:25;98755.78;;;10.12;69.53
83373;BME280;73281;50.882;5.984;2023-12-29T00:02:51;98755.75;;;10.05;69.74
83373;BME280;73281;50.882;5.984;2023-12-29T00:05:16;98773.13;;;10.00;69.53
83373;BME280;73281;50.882;5.984;2023-12-29T00:07:42;98763.47;;;10.03;69.00
83373;BME280;73281;50.882;5.984;2023-12-29T00:10:08;98754.25;;;10.07;69.39
83373;BME280;73281;50.882;5.984;2023-12-29T00:12:33;98746.88;;;10.04;69.53
83373;BME280;73281;50.882;5.984;2023-12-29T00:14:59;98745.34;;;9.96;69.87
83373;BME280;73281;50.882;5.984;2023-12-29T00:17:25;98770.06;;;10.09;69.12
83373;BME280;73281;50.882;5.984;2023-12-29T00:19:50;98738.03;;;10.11;69.54
83373;BME280;73281;50.882;5.984;2023-12-29T00:22:15;98750.34;;;10.05;69.44
83373;BME280;73281;50.882;5.984;2023-12-29T00:24:41;98750.75;;;10.00;69.84
83373;BME280;73281;50.882;5.984;2023-12-29T00:27:06;98731.03;;;9.92;70.16
83373;BME280;73281;50.882;5.984;2023-12-29T00:29:31;98738.75;;;9.94;70.03
83373;BME280;73281;50.882;5.984;2023-12-29T00:31:58;98739.94;;;10.00;70.10
83373;BME280;73281;50.882;5.984;2023-12-29T00:34:25;98723.69;;;10.03;70.02
83373;BME280;73281;50.882;5.984;2023-12-29T00:36:51;98725.28;;;10.08;69.98
83373;BME280;73281;50.882;5.984;2023-12-29T00:39:16;98728.72;;;10.01;69.47
83373;BME280;73281;50.882;5.984;2023-12-29T00:41:42;98728.75;;;10.12;69.88
83373;BME280;73281;50.882;5.984;2023-12-29T00:44:07;98736.47;;;9.96;69.89
83373;BME280;73281;50.882;5.984;2023-12-29T00:46:33;98708.66;;;9.99;70.06
83373;BME280;73281;50.882;5.984;2023-12-29T00:48:59;98704.03;;;10.06;69.88
83373;BME280;73281;50.882;5.984;2023-12-29T00:51:24;98714.09;;;10.17;69.48
83373;BME280;73281;50.882;5.984;2023-12-29T00:53:49;98724.13;;;10.09;69.99
83373;BME280;73281;50.882;5.984;2023-12-29T00:56:15;98734.56;;;10.07;70.08
83373;BME280;73281;50.882;5.984;2023-12-29T00:58:40;98707.09;;;9.98;70.22
83373;BME280;73281;50.882;5.984;2023-12-29T01:01:07;98717.53;;;9.96;70.20
83373;BME280;73281;50.882;5.984;2023-12-29T01:03:34;98713.31;;;10.09;70.38
83373;BME280;73281;50.882;5.984;2023-12-29T01:05:59;98700.53;;;10.02;70.33
83373;BME280;73281;50.882;5.984;2023-12-29T01:08:24;98728.75;;;10.08;69.84
83373;BME280;73281;50.882;5.984;2023-12-29T01:10:50;98733.34;;;10.01;70.28
83373;BME280;73281;50.882;5.984;2023-12-29T01:13:15;98736.81;;;10.05;70.43
83373;BME280;73281;50.882;5.984;2023-12-29T01:15:41;98716.81;;;10.13;69.89
83373;BME280;73281;50.882;5.984;2023-12-29T01:18:10;98709.81;;;10.05;70.28
83373;BME280;73281;50.882;5.984;2023-12-29T01:20:35;98711.78;;;10.12;70.22
83373;BME280;73281;50.882;5.984;2023-12-29T01:23:00;98709.81;;;10.05;70.68
83373;BME280;73281;50.882;5.984;2023-12-29T01:25:26;98705.59;;;10.07;70.77
83373;BME280;73281;50.882;5.984;2023-12-29T01:27:51;98713.66;;;9.97;70.86
83373;BME280;73281;50.882;5.984;2023-12-29T01:30:16;98709.84;;;10.08;70.97
83373;BME280;73281;50.882;5.984;2023-12-29T01:32:42;98708.28;;;10.18;70.60
83373;BME280;73281;50.882;5.984;2023-12-29T01:35:07;98680.88;;;10.05;71.11
83373;BME280;73281;50.882;5.984;2023-12-29T01:37:33;98683.59;;;10.02;71.00
83373;BME280;73281;50.882;5.984;2023-12-29T01:39:59;98705.19;;;9.95;71.01
83373;BME280;73281;50.882;5.984;2023-12-29T01:42:24;98694.78;;;10.00;71.07
83373;BME280;73281;50.882;5.984;2023-12-29T01:44:50;98693.22;;;10.03;70.97
83373;BME280;73281;50.882;5.984;2023-12-29T01:47:20;98692.47;;;10.06;70.96
83373;BME280;73281;50.882;5.984;2023-12-29T01:49:48;98680.88;;;9.88;71.58
83373;BME280;73281;50.882;5.984;2023-12-29T01:52:16;98700.16;;;9.97;71.14
83373;BME280;73281;50.882;5.984;2023-12-29T01:54:42;98687.03;;;10.02;70.78
83373;BME280;73281;50.882;5.984;2023-12-29T01:57:09;98700.16;;;9.97;71.01
83373;BME280;73281;50.882;5.984;2023-12-29T01:59:36;98707.47;;;10.03;70.75
83373;BME280;73281;50.882;5.984;2023-12-29T02:02:03;98706.00;;;10.06;70.98
83373;BME280;73281;50.882;5.984;2023-12-29T02:04:30;98704.44;;;10.12;70.27
83373;BME280;73281;50.882;5.984;2023-12-29T02:06:55;98701.69;;;10.05;70.63
83373;BME280;73281;50.882;5.984;2023-12-29T02:09:21;98707.91;;;10.09;70.55
83373;BME280;73281;50.882;5.984;2023-12-29T02:11:47;98687.47;;;10.12;70.74
83373;BME280;73281;50.882;5.984;2023-12-29T02:14:17;98704.06;;;10.17;70.35
83373;BME280;73281;50.882;5.984;2023-12-29T02:16:56;98709.47;;;10.17;70.42
83373;BME280;73281;50.882;5.984;2023-12-29T02:19:46;98717.94;;;10.19;70.59
83373;BME280;73281;50.882;5.984;2023-12-29T02:22:14;98697.88;;;10.17;71.08
83373;BME280;73281;50.882;5.984;2023-12-29T02:24:39;98694.75;;;10.04;70.71
83373;BME280;73281;50.882;5.984;2023-12-29T02:30:09;98689.34;;;10.14;70.70
83373;BME280;73281;50.882;5.984;2023-12-29T02:32:39;98679.34;;;9.97;71.27
83373;BME280;73281;50.882;5.984;2023-12-29T02:35:09;98686.28;;;10.09;71.16
83373;BME280;73281;50.882;5.984;2023-12-29T02:37:36;98683.59;;;10.13;71.26
83373;BME280;73281;50.882;5.984;2023-12-29T02:40:02;98672.78;;;10.05;70.87
83373;BME280;73281;50.882;5.984;2023-12-29T02:42:27;98693.22;;;10.21;71.11
83373;BME280;73281;50.882;5.984;2023-12-29T02:44:53;98690.91;;;10.16;71.19
83373;BME280;73281;50.882;5.984;2023-12-29T02:47:18;98676.63;;;10.15;71.28
83373;BME280;73281;50.882;5.984;2023-12-29T02:49:44;98687.84;;;10.17;70.77
83373;BME280;73281;50.882;5.984;2023-12-29T02:52:10;98686.28;;;9.98;71.45
83373;BME280;73281;50.882;5.984;2023-12-29T02:54:35;98680.88;;;10.09;71.35
83373;BME280;73281;50.882;5.984;2023-12-29T02:57:01;98673.53;;;10.17;71.46
83373;BME280;73281;50.882;5.984;2023-12-29T02:59:26;98665.81;;;10.15;70.99
83373;BME280;73281;50.882;5.984;2023-12-29T03:01:51;98666.22;;;10.10;71.48
83373;BME280;73281;50.882;5.984;2023-12-29T03:04:17;98649.63;;;10.08;72.05
83373;BME280;73281;50.882;5.984;2023-12-29T03:06:42;98651.53;;;10.04;71.70
83373;BME280;73281;50.882;5.984;2023-12-29T03:09:08;98660.41;;;9.94;71.74
83373;BME280;73281;50.882;5.984;2023-12-29T03:11:33;98665.41;;;9.95;71.54
83373;BME280;73281;50.882;5.984;2023-12-29T03:13:59;98672.78;;;10.02;71.53
83373;BME280;73281;50.882;5.984;2023-12-29T03:16:24;98648.47;;;9.88;71.69
83373;BME280;73281;50.882;5.984;2023-12-29T03:18:49;98658.50;;;9.84;72.16
83373;BME280;73281;50.882;5.984;2023-12-29T03:21:15;98654.63;;;9.81;72.22
83373;BME280;73281;50.882;5.984;2023-12-29T03:23:40;98653.47;;;9.96;71.71
83373;BME280;73281;50.882;5.984;2023-12-29T03:26:06;98648.84;;;10.00;71.82
83373;BME280;73281;50.882;5.984;2023-12-29T03:28:31;98647.66;;;10.05;71.59
83373;BME280;73281;50.882;5.984;2023-12-29T03:30:56;98641.47;;;10.01;71.47
83373;BME280;73281;50.882;5.984;2023-12-29T03:33:22;98641.47;;;10.01;71.38
83373;BME280;73281;50.882;5.984;2023-12-29T03:35:47;98638.78;;;10.01;71.23
83373;BME280;73281;50.882;5.984;2023-12-29T03:38:13;98639.97;;;10.14;71.19
83373;BME280;73281;50.882;5.984;2023-12-29T03:40:40;98635.31;;;10.18;71.20
83373;BME280;73281;50.882;5.984;2023-12-29T03:43:05;98643.00;;;10.23;71.11
83373;BME280;73281;50.882;5.984;2023-12-29T03:45:30;98644.97;;;10.16;71.42
83373;BME280;73281;50.882;5.984;2023-12-29T03:47:56;98635.72;;;10.09;71.31
83373;BME280;73281;50.882;5.984;2023-12-29T03:50:21;98641.50;;;10.15;71.33
83373;BME280;73281;50.882;5.984;2023-12-29T03:52:47;98661.16;;;10.26;70.93
83373;BME280;73281;50.882;5.984;2023-12-29T03:55:12;98661.56;;;10.21;71.11
83373;BME280;73281;50.882;5.984;2023-12-29T03:57:38;98639.19;;;10.10;71.19
83373;BME280;73281;50.882;5.984;2023-12-29T04:00:04;98666.19;;;10.28;71.38
83373;BME280;73281;50.882;5.984;2023-12-29T04:02:29;98671.63;;;10.17;71.65
83373;BME280;73281;50.882;5.984;2023-12-29T04:04:55;98681.25;;;10.25;71.36
83373;BME280;73281;50.882;5.984;2023-12-29T04:07:20;98673.13;;;10.22;71.74
83373;BME280;73281;50.882;5.984;2023-12-29T04:09:46;98666.59;;;10.16;71.70
83373;BME280;73281;50.882;5.984;2023-12-29T04:12:11;98665.41;;;10.20;71.46
83373;BME280;73281;50.882;5.984;2023-12-29T04:14:36;98676.22;;;10.24;71.61
83373;BME280;73281;50.882;5.984;2023-12-29T04:17:02;98666.22;;;10.17;72.17
83373;BME280;73281;50.882;5.984;2023-12-29T04:19:29;98670.03;;;10.30;71.33
83373;BME280;73281;50.882;5.984;2023-12-29T04:21:54;98676.22;;;10.27;71.68
83373;BME280;73281;50.882;5.984;2023-12-29T04:24:20;98667.34;;;10.23;72.04
83373;BME280;73281;50.882;5.984;2023-12-29T04:26:45;98641.13;;;10.13;72.36
83373;BME280;73281;50.882;5.984;2023-12-29T04:29:11;98661.19;;;10.16;72.08
83373;BME280;73281;50.882;5.984;2023-12-29T04:31:36;98657.72;;;10.19;71.70
83373;BME280;73281;50.882;5.984;2023-12-29T04:34:01;98669.28;;;10.19;71.94
83373;BME280;73281;50.882;5.984;2023-12-29T04:36:27;98660.00;;;10.27;71.43
83373;BME280;73281;50.882;5.984;2023-12-29T04:38:52;98660.41;;;10.26;71.80
83373;BME280;73281;50.882;5.984;2023-12-29T04:41:17;98675.47;;;10.13;71.90
83373;BME280;73281;50.882;5.984;2023-12-29T04:43:43;98670.03;;;10.23;71.67
83373;BME280;73281;50.882;5.984;2023-12-29T04:46:09;98672.38;;;10.21;71.89
83373;BME280;73281;50.882;5.984;2023-12-29T04:48:34;98689.34;;;10.32;71.65
83373;BME280;73281;50.882;5.984;2023-12-29T04:50:59;98681.25;;;10.18;71.76
83373;BME280;73281;50.882;5.984;2023-12-29T04:53:25;98691.28;;;10.28;71.54
83373;BME280;73281;50.882;5.984;2023-12-29T04:55:50;98691.28;;;10.25;71.69
83373;BME280;73281;50.882;5.984;2023-12-29T04:58:15;98672.75;;;10.27;71.88
83373;BME280;73281;50.882;5.984;2023-12-29T05:00:41;98679.31;;;10.22;71.68
83373;BME280;73281;50.882;5.984;2023-12-29T05:03:06;98667.78;;;10.07;71.85
83373;BME280;73281;50.882;5.984;2023-12-29T05:05:32;98685.50;;;10.19;71.38
83373;BME280;73281;50.882;5.984;2023-12-29T05:07:57;98677.00;;;10.24;71.11
83373;BME280;73281;50.882;5.984;2023-12-29T05:10:22;98687.81;;;10.24;71.19
83373;BME280;73281;50.882;5.984;2023-12-29T05:12:48;98686.66;;;10.25;71.33
83373;BME280;73281;50.882;5.984;2023-12-29T05:15:13;98687.44;;;10.26;71.17
83373;BME280;73281;50.882;5.984;2023-12-29T05:17:38;98695.56;;;10.19;71.01
83373;BME280;73281;50.882;5.984;2023-12-29T05:20:06;98678.94;;;10.24;71.34
83373;BME280;73281;50.882;5.984;2023-12-29T05:22:31;98687.84;;;10.17;71.36
83373;BME280;73281;50.882;5.984;2023-12-29T05:24:57;98687.44;;;10.26;71.12
83373;BME280;73281;50.882;5.984;2023-12-29T05:27:25;98668.50;;;10.22;71.32
83373;BME280;73281;50.882;5.984;2023-12-29T05:29:50;98673.16;;;10.18;71.33
83373;BME280;73281;50.882;5.984;2023-12-29T05:32:16;98667.34;;;10.16;71.66
83373;BME280;73281;50.882;5.984;2023-12-29T05:34:41;98656.94;;;10.11;71.49
83373;BME280;73281;50.882;5.984;2023-12-29T05:37:06;98670.84;;;10.09;72.05
83373;BME280;73281;50.882;5.984;2023-12-29T05:39:32;98670.47;;;10.11;71.96
83373;BME280;73281;50.882;5.984;2023-12-29T05:41:58;98683.94;;;9.97;72.21
83373;BME280;73281;50.882;5.984;2023-12-29T05:44:23;98665.84;;;10.12;71.93
83373;BME280;73281;50.882;5.984;2023-12-29T05:46:48;98673.16;;;10.18;71.67
83373;BME280;73281;50.882;5.984;2023-12-29T05:49:14;98665.03;;;10.04;72.12
83373;BME280;73281;50.882;5.984;2023-12-29T05:51:39;98666.59;;;10.12;72.22
83373;BME280;73281;50.882;5.984;2023-12-29T05:54:05;98677.03;;;10.17;72.30
83373;BME280;73281;50.882;5.984;2023-12-29T05:56:30;98673.13;;;10.14;72.40
83373;BME280;73281;50.882;5.984;2023-12-29T05:58:56;98677.75;;;10.03;72.84
83373;BME280;73281;50.882;5.984;2023-12-29T06:01:21;98682.44;;;10.06;72.98
83373;BME280;73281;50.882;5.984;2023-12-29T06:03:47;98668.91;;;10.06;72.42
83373;BME280;73281;50.882;5.984;2023-12-29T06:06:12;98677.41;;;10.01;72.84
83373;BME280;73281;50.882;5.984;2023-12-29T06:08:37;98669.28;;;10.01;72.69
83373;BME280;73281;50.882;5.984;2023-12-29T06:11:03;98675.09;;;10.07;73.20
83373;BME280;73281;50.882;5.984;2023-12-29T06:13:28;98671.59;;;10.13;72.80
83373;BME280;73281;50.882;5.984;2023-12-29T06:15:54;98677.03;;;10.10;72.77
83373;BME280;73281;50.882;5.984;2023-12-29T06:18:20;98674.31;;;10.10;72.99
83373;BME280;73281;50.882;5.984;2023-12-29T06:20:45;98660.78;;;10.03;73.31
83373;BME280;73281;50.882;5.984;2023-12-29T06:23:10;98666.56;;;10.05;73.14
83373;BME280;73281;50.882;5.984;2023-12-29T06:25:36;98663.13;;;9.83;73.76
83373;BME280;73281;50.882;5.984;2023-12-29T06:28:01;98661.59;;;9.96;73.57
83373;BME280;73281;50.882;5.984;2023-12-29T06:30:29;98666.97;;;9.93;73.72
83373;BME280;73281;50.882;5.984;2023-12-29T06:32:54;98672.00;;;9.91;74.06
83373;BME280;73281;50.882;5.984;2023-12-29T06:35:20;98665.03;;;9.90;73.81
83373;BME280;73281;50.882;5.984;2023-12-29T06:37:45;98672.41;;;9.96;73.75
83373;BME280;73281;50.882;5.984;2023-12-29T06:40:11;98673.16;;;9.86;73.73
83373;BME280;73281;50.882;5.984;2023-12-29T06:42:36;98659.25;;;9.98;73.69
83373;BME280;73281;50.882;5.984;2023-12-29T06:45:02;98652.69;;;9.96;73.82
83373;BME280;73281;50.882;5.984;2023-12-29T06:47:27;98635.72;;;9.99;73.58
83373;BME280;73281;50.882;5.984;2023-12-29T06:49:52;98630.69;;;10.01;73.62
83373;BME280;73281;50.882;5.984;2023-12-29T06:52:18;98622.19;;;9.99;73.59
83373;BME280;73281;50.882;5.984;2023-12-29T06:54:43;98617.97;;;9.87;74.02
83373;BME280;73281;50.882;5.984;2023-12-29T06:57:09;98621.03;;;9.93;74.05
83373;BME280;73281;50.882;5.984;2023-12-29T06:59:34;98621.06;;;9.89;74.12
83373;BME280;73281;50.882;5.984;2023-12-29T07:02:00;98623.75;;;9.93;74.06
83373;BME280;73281;50.882;5.984;2023-12-29T07:04:25;98606.75;;;9.92;74.22
83373;BME280;73281;50.882;5.984;2023-12-29T07:06:51;98617.91;;;10.05;73.91
83373;BME280;73281;50.882;5.984;2023-12-29T07:09:16;98623.75;;;9.96;74.08
83373;BME280;73281;50.882;5.984;2023-12-29T07:11:47;98604.84;;;9.96;74.72
83373;BME280;73281;50.882;5.984;2023-12-29T07:14:12;98622.97;;;9.96;74.92
83373;BME280;73281;50.882;5.984;2023-12-29T07:16:38;98632.25;;;9.95;75.84
83373;BME280;73281;50.882;5.984;2023-12-29T07:19:03;98631.44;;;9.98;77.12
83373;BME280;73281;50.882;5.984;2023-12-29T07:21:28;98643.81;;;9.95;77.26
83373;BME280;73281;50.882;5.984;2023-12-29T07:23:54;98628.78;;;9.84;78.32
83373;BME280;73281;50.882;5.984;2023-12-29T07:26:19;98624.53;;;9.76;79.36
83373;BME280;73281;50.882;5.984;2023-12-29T07:28:45;98630.31;;;9.78;79.46
83373;BME280;73281;50.882;5.984;2023-12-29T07:31:11;98620.28;;;9.75;79.58
83373;BME280;73281;50.882;5.984;2023-12-29T07:33:36;98638.44;;;9.74;79.72
83373;BME280;73281;50.882;5.984;2023-12-29T07:36:02;98611.81;;;9.66;80.37
83373;BME280;73281;50.882;5.984;2023-12-29T07:38:27;98616.09;;;9.63;81.01
83373;BME280;73281;50.882;5.984;2023-12-29T07:40:52;98622.25;;;9.53;80.91
83373;BME280;73281;50.882;5.984;2023-12-29T07:43:18;98621.06;;;9.47;81.81
83373;BME280;73281;50.882;5.984;2023-12-29T07:45:43;98632.25;;;9.46;81.78
83373;BME280;73281;50.882;5.984;2023-12-29T07:48:09;98629.19;;;9.51;81.43
83373;BME280;73281;50.882;5.984;2023-12-29T07:50:34;98642.28;;;9.49;82.37
83373;BME280;73281;50.882;5.984;2023-12-29T07:53:00;98623.00;;;9.36;83.21
83373;BME280;73281;50.882;5.984;2023-12-29T07:55:30;98630.72;;;9.45;83.17
83373;BME280;73281;50.882;5.984;2023-12-29T07:57:56;98623.00;;;9.57;82.96
83373;BME280;73281;50.882;5.984;2023-12-29T08:00:21;98632.25;;;9.39;83.03
83373;BME280;73281;50.882;5.984;2023-12-29T08:02:48;98622.22;;;9.50;83.09
83373;BME280;73281;50.882;5.984;2023-12-29T08:05:14;98623.41;;;9.42;83.36
83373;BME280;73281;50.882;5.984;2023-12-29T08:07:41;98643.44;;;9.51;83.11
83373;BME280;73281;50.882;5.984;2023-12-29T08:10:07;98639.19;;;9.54;83.25
83373;BME280;73281;50.882;5.984;2023-12-29T08:12:33;98626.88;;;9.49;83.00
83373;BME280;73281;50.882;5.984;2023-12-29T08:14:59;98639.59;;;9.35;83.71
83373;BME280;73281;50.882;5.984;2023-12-29T08:17:25;98636.91;;;9.31;83.76
83373;BME280;73281;50.882;5.984;2023-12-29T08:19:51;98650.78;;;9.51;83.49
83373;BME280;73281;50.882;5.984;2023-12-29T08:22:16;98658.50;;;9.42;83.85
83373;BME280;73281;50.882;5.984;2023-12-29T08:24:42;98655.81;;;9.52;83.23
83373;BME280;73281;50.882;5.984;2023-12-29T08:27:12;98653.47;;;9.47;83.80
83373;BME280;73281;50.882;5.984;2023-12-29T08:29:38;98648.84;;;9.41;83.73
83373;BME280;73281;50.882;5.984;2023-12-29T08:32:03;98668.13;;;9.39;83.86
83373;BME280;73281;50.882;5.984;2023-12-29T08:34:29;98658.50;;;9.56;83.61
83373;BME280;73281;50.882;5.984;2023-12-29T08:36:54;98661.22;;;9.52;83.69
83373;BME280;73281;50.882;5.984;2023-12-29T08:39:19;98663.13;;;9.59;83.63
83373;BME280;73281;50.882;5.984;2023-12-29T08:41:46;98669.31;;;9.63;83.38
83373;BME280;73281;50.882;5.984;2023-12-29T08:44:12;98660.06;;;9.53;82.90
83373;BME280;73281;50.882;5.984;2023-12-29T08:46:37;98666.22;;;9.61;83.60
83373;BME280;73281;50.882;5.984;2023-12-29T08:49:03;98663.91;;;9.49;83.73
83373;BME280;73281;50.882;5.984;2023-12-29T08:51:28;98659.28;;;9.49;84.23
83373;BME280;73281;50.882;5.984;2023-12-29T08:53:54;98667.00;;;9.44;84.17
83373;BME280;73281;50.882;5.984;2023-12-29T08:56:19;98664.28;;;9.44;84.41
83373;BME280;73281;50.882;5.984;2023-12-29T08:58:44;98672.00;;;9.52;84.43
83373;BME280;73281;50.882;5.984;2023-12-29T09:01:10;98673.94;;;9.52;84.54
83373;BME280;73281;50.882;5.984;2023-12-29T09:03:35;98687.41;;;9.31;84.44
83373;BME280;73281;50.882;5.984;2023-12-29T09:06:00;98683.53;;;9.39;84.05
83373;BME280;73281;50.882;5.984;2023-12-29T09:08:28;98677.03;;;9.47;83.77
83373;BME280;73281;50.882;5.984;2023-12-29T09:10:53;98678.19;;;9.56;83.25
83373;BME280;73281;50.882;5.984;2023-12-29T09:13:18;98673.56;;;9.53;83.24
83373;BME280;73281;50.882;5.984;2023-12-29T09:15:48;98688.97;;;9.46;83.69
83373;BME280;73281;50.882;5.984;2023-12-29T09:18:13;98678.19;;;9.49;83.80
83373;BME280;73281;50.882;5.984;2023-12-29T09:20:39;98687.81;;;9.54;84.04
83373;BME280;73281;50.882;5.984;2023-12-29T09:23:05;98679.72;;;9.50;84.12
83373;BME280;73281;50.882;5.984;2023-12-29T09:25:30;98679.72;;;9.50;84.18
83373;BME280;73281;50.882;5.984;2023-12-29T09:27:56;98686.66;;;9.48;83.98
83373;BME280;73281;50.882;5.984;2023-12-29T09:30:21;98681.66;;;9.53;84.05
83373;BME280;73281;50.882;5.984;2023-12-29T09:32:47;98694.00;;;9.51;84.20
83373;BME280;73281;50.882;5.984;2023-12-29T09:35:12;98678.56;;;9.48;83.89
83373;BME280;73281;50.882;5.984;2023-12-29T09:37:38;98687.41;;;9.55;84.17
83373;BME280;73281;50.882;5.984;2023-12-29T09:40:03;98688.59;;;9.54;83.97
83373;BME280;73281;50.882;5.984;2023-12-29T09:42:30;98681.25;;;9.51;84.65
83373;BME280;73281;50.882;5.984;2023-12-29T09:44:56;98673.94;;;9.59;84.39
83373;BME280;73281;50.882;5.984;2023-12-29T09:47:23;98693.22;;;9.57;84.26
83373;BME280;73281;50.882;5.984;2023-12-29T09:49:51;98679.34;;;9.66;84.30
83373;BME280;73281;50.882;5.984;2023-12-29T09:52:21;98678.97;;;9.60;83.97
83373;BME280;73281;50.882;5.984;2023-12-29T09:54:49;98682.41;;;9.54;84.48
83373;BME280;73281;50.882;5.984;2023-12-29T09:57:17;98692.44;;;9.64;84.13
83373;BME280;73281;50.882;5.984;2023-12-29T09:59:43;98673.16;;;9.55;83.93
83373;BME280;73281;50.882;5.984;2023-12-29T10:02:14;98679.72;;;9.61;83.74
83373;BME280;73281;50.882;5.984;2023-12-29T10:04:41;98690.13;;;9.62;83.93
83373;BME280;73281;50.882;5.984;2023-12-29T10:07:07;98692.84;;;9.80;83.55
83373;BME280;73281;50.882;5.984;2023-12-29T10:09:37;98691.69;;;9.63;83.42
83373;BME280;73281;50.882;5.984;2023-12-29T10:12:06;98689.38;;;9.72;82.92
83373;BME280;73281;50.882;5.984;2023-12-29T10:23:13;98685.91;;;9.68;82.91
83373;BME280;73281;50.882;5.984;2023-12-29T10:25:42;98680.88;;;9.56;83.67
83373;BME280;73281;50.882;5.984;2023-12-29T10:28:09;98690.91;;;9.63;82.82
83373;BME280;73281;50.882;5.984;2023-12-29T10:30:36;98687.81;;;9.82;83.25
83373;BME280;73281;50.882;5.984;2023-12-29T10:33:05;98685.53;;;9.84;81.52
83373;BME280;73281;50.882;5.984;2023-12-29T10:35:31;98678.16;;;9.84;81.58
83373;BME280;73281;50.882;5.984;2023-12-29T10:38:12;98690.50;;;9.92;82.03
83373;BME280;73281;50.882;5.984;2023-12-29T10:40:41;98680.47;;;9.93;82.20
83373;BME280;73281;50.882;5.984;2023-12-29T10:43:08;98658.50;;;9.91;82.03
83373;BME280;73281;50.882;5.984;2023-12-29T10:45:34;98665.44;;;9.92;81.89
83373;BME280;73281;50.882;5.984;2023-12-29T10:48:01;98667.34;;;9.98;81.21
83373;BME280;73281;50.882;5.984;2023-12-29T10:50:27;98654.25;;;9.93;81.88
83373;BME280;73281;50.882;5.984;2023-12-29T10:53:14;98650.78;;;9.89;81.10
83373;BME280;73281;50.882;5.984;2023-12-29T10:55:42;98670.47;;;9.93;81.32
83373;BME280;73281;50.882;5.984;2023-12-29T10:58:07;98665.03;;;9.97;81.85
83373;BME280;73281;50.882;5.984;2023-12-29T11:00:33;98664.28;;;9.96;82.04
83373;BME280;73281;50.882;5.984;2023-12-29T11:02:58;98653.47;;;10.00;81.36
83373;BME280;73281;50.882;5.984;2023-12-29T11:05:25;98674.31;;;10.03;80.98
83373;BME280;73281;50.882;5.984;2023-12-29T11:07:53;98666.59;;;10.01;81.55
83373;BME280;73281;50.882;5.984;2023-12-29T11:10:22;98667.38;;;10.02;81.98
83373;BME280;73281;50.882;5.984;2023-12-29T11:12:48;98669.69;;;10.07;82.20
83373;BME280;73281;50.882;5.984;2023-12-29T11:15:15;98670.84;;;10.13;82.76
83373;BME280;73281;50.882;5.984;2023-12-29T11:17:42;98650.41;;;10.08;82.64
83373;BME280;73281;50.882;5.984;2023-12-29T11:20:15;98660.41;;;10.19;83.22
83373;BME280;73281;50.882;5.984;2023-12-29T11:22:42;98668.13;;;9.95;83.10
83373;BME280;73281;50.882;5.984;2023-12-29T11:25:09;98670.84;;;10.13;83.06
83373;BME280;73281;50.882;5.984;2023-12-29T11:27:35;98655.78;;;10.12;83.15
83373;BME280;73281;50.882;5.984;2023-12-29T11:30:02;98668.91;;;10.17;81.88
83373;BME280;73281;50.882;5.984;2023-12-29T11:32:45;98660.41;;;10.22;82.66
83373;BME280;73281;50.882;5.984;2023-12-29T11:35:18;98655.38;;;10.24;82.66
83373;BME280;73281;50.882;5.984;2023-12-29T11:40:53;98651.56;;;10.07;82.96
83373;BME280;73281;50.882;5.984;2023-12-29T11:43:22;98655.38;;;10.21;82.31
83373;BME280;73281;50.882;5.984;2023-12-29T11:45:47;98654.25;;;10.11;82.46
83373;BME280;73281;50.882;5.984;2023-12-29T11:48:12;98653.84;;;9.98;82.37
83373;BME280;73281;50.882;5.984;2023-12-29T11:50:58;98658.50;;;10.16;82.87
83373;BME280;73281;50.882;5.984;2023-12-29T11:53:31;98648.84;;;10.07;82.48
83373;BME280;73281;50.882;5.984;2023-12-29T11:55:57;98648.81;;;10.14;82.81
83373;BME280;73281;50.882;5.984;2023-12-29T11:58:24;98646.91;;;10.12;83.27
83373;BME280;73281;50.882;5.984;2023-12-29T12:00:50;98650.00;;;10.10;83.34
83373;BME280;73281;50.882;5.984;2023-12-29T12:03:26;98660.41;;;10.08;83.99
83373;BME280;73281;50.882;5.984;2023-12-29T12:05:53;98647.66;;;10.19;82.81
83373;BME280;73281;50.882;5.984;2023-12-29T12:10:53;98641.91;;;10.10;83.42
83373;BME280;73281;50.882;5.984;2023-12-29T12:13:44;98655.03;;;10.12;83.29
83373;BME280;73281;50.882;5.984;2023-12-29T12:19:11;98644.19;;;10.04;83.17
83373;BME280;73281;50.882;5.984;2023-12-29T12:21:40;98636.09;;;10.04;83.50
83373;BME280;73281;50.882;5.984;2023-12-29T12:24:06;98655.38;;;10.13;82.94
83373;BME280;73281;50.882;5.984;2023-12-29T12:26:32;98645.75;;;10.09;83.64
83373;BME280;73281;50.882;5.984;2023-12-29T12:28:59;98646.53;;;10.09;83.34
83373;BME280;73281;50.882;5.984;2023-12-29T12:31:25;98644.59;;;10.17;83.75
83373;BME280;73281;50.882;5.984;2023-12-29T12:33:57;98636.09;;;10.08;83.17
83373;BME280;73281;50.882;5.984;2023-12-29T12:36:23;98640.75;;;10.07;83.31
83373;BME280;73281;50.882;5.984;2023-12-29T12:38:56;98636.47;;;9.96;82.62
83373;BME280;73281;50.882;5.984;2023-12-29T12:41:23;98640.34;;;10.05;83.43
83373;BME280;73281;50.882;5.984;2023-12-29T12:44:10;98644.97;;;10.23;82.64
83373;BME280;73281;50.882;5.984;2023-12-29T12:46:41;98646.91;;;10.15;81.48
83373;BME280;73281;50.882;5.984;2023-12-29T12:49:07;98646.09;;;10.22;81.80
83373;BME280;73281;50.882;5.984;2023-12-29T12:51:33;98631.47;;;10.16;81.29
83373;BME280;73281;50.882;5.984;2023-12-29T12:53:59;98626.03;;;10.05;82.34
83373;BME280;73281;50.882;5.984;2023-12-29T12:56:25;98626.03;;;10.05;81.90
83373;BME280;73281;50.882;5.984;2023-12-29T12:58:55;98615.22;;;10.05;82.33
83373;BME280;73281;50.882;5.984;2023-12-29T13:01:21;98619.50;;;10.09;82.71
83373;BME280;73281;50.882;5.984;2023-12-29T13:03:47;98613.69;;;10.04;82.69
83373;BME280;73281;50.882;5.984;2023-12-29T13:06:13;98615.59;;;10.18;82.50
83373;BME280;73281;50.882;5.984;2023-12-29T13:08:39;98621.44;;;9.95;83.27
83373;BME280;73281;50.882;5.984;2023-12-29T13:11:04;98633.03;;;9.92;84.50
83373;BME280;73281;50.882;5.984;2023-12-29T13:13:41;98634.19;;;9.91;85.10
83373;BME280;73281;50.882;5.984;2023-12-29T13:16:08;98631.84;;;9.86;85.08
83373;BME280;73281;50.882;5.984;2023-12-29T13:18:33;98627.25;;;9.86;85.47
83373;BME280;73281;50.882;5.984;2023-12-29T13:21:01;98614.09;;;9.81;85.74